SWR1630 EDDL-EKCH
Flight info
| Callsign | SWR1630 |
|---|---|
| Flight time | 0h 51m |
| Altitude | 37000 |
| Route | MEVEL4T MEVEL Y850 BASUM M170 STADE DCT MEGAR P605 GESKA Z711 MONAK |
| Aircraft | MD11/H-SDE1E2E3FGHIJ2J3J4J5M1RWXY/LB1D1 |
Departure
| Time | 2026-05-04 22:25 |
|---|---|
| Airport | Düsseldorf Airport (EDDL) |
Arrival
| Time | 2026-05-04 23:16 |
|---|---|
| Airport | Copenhagen Kastrup Airport (EKCH) |
| Time | Latitude | Longitude | Altitude | Speed | Heading |
|---|---|---|---|---|---|
| 2026-05-04 21:51 | 51.28259 | 6.76698 | 144 ft | 0 kts | 205° |
| 2026-05-04 22:15 | 51.28274 | 6.76708 | 144 ft | 4 kts | 198° |
| 2026-05-04 22:15 | 51.28299 | 6.76718 | 144 ft | 4 kts | 179° |
| 2026-05-04 22:15 | 51.28323 | 6.76713 | 144 ft | 4 kts | 148° |
| 2026-05-04 22:16 | 51.28338 | 6.76690 | 144 ft | 4 kts | 106° |
| 2026-05-04 22:16 | 51.28340 | 6.76656 | 144 ft | 4 kts | 64° |
| 2026-05-04 22:16 | 51.28337 | 6.76644 | 144 ft | 3 kts | 53° |
| 2026-05-04 22:20 | 51.28338 | 6.76648 | 144 ft | 1 kts | 53° |
| 2026-05-04 22:20 | 51.28350 | 6.76674 | 144 ft | 4 kts | 53° |
| 2026-05-04 22:20 | 51.28377 | 6.76695 | 144 ft | 4 kts | 7° |
| 2026-05-04 22:20 | 51.28408 | 6.76682 | 144 ft | 6 kts | 349° |
| 2026-05-04 22:21 | 51.28447 | 6.76701 | 144 ft | 6 kts | 33° |
| 2026-05-04 22:21 | 51.28485 | 6.76768 | 144 ft | 10 kts | 52° |
| 2026-05-04 22:21 | 51.28527 | 6.76855 | 144 ft | 11 kts | 52° |
| 2026-05-04 22:21 | 51.28584 | 6.76974 | 144 ft | 16 kts | 52° |
| 2026-05-04 22:22 | 51.28662 | 6.77137 | 144 ft | 21 kts | 52° |
| 2026-05-04 22:22 | 51.28757 | 6.77337 | 144 ft | 24 kts | 53° |
| 2026-05-04 22:22 | 51.28855 | 6.77543 | 144 ft | 22 kts | 52° |
| 2026-05-04 22:22 | 51.28946 | 6.77734 | 144 ft | 21 kts | 53° |
| 2026-05-04 22:23 | 51.29030 | 6.77912 | 144 ft | 19 kts | 53° |
| 2026-05-04 22:23 | 51.29108 | 6.78074 | 144 ft | 18 kts | 53° |
| 2026-05-04 22:23 | 51.29179 | 6.78223 | 145 ft | 16 kts | 52° |
| 2026-05-04 22:23 | 51.29245 | 6.78363 | 145 ft | 15 kts | 52° |
| 2026-05-04 22:24 | 51.29309 | 6.78498 | 145 ft | 16 kts | 51° |
| 2026-05-04 22:24 | 51.29414 | 6.78571 | 145 ft | 19 kts | 1° |
| 2026-05-04 22:24 | 51.29511 | 6.78513 | 150 ft | 11 kts | 302° |
| 2026-05-04 22:24 | 51.29487 | 6.78391 | 149 ft | 18 kts | 231° |
| 2026-05-04 22:25 | 51.29267 | 6.77937 | 145 ft | 101 kts | 232° |
| 2026-05-04 22:25 | 51.28645 | 6.76654 | 177 ft | 181 kts | 231° |
| 2026-05-04 22:25 | 51.27851 | 6.75027 | 1093 ft | 185 kts | 231° |
| 2026-05-04 22:25 | 51.27154 | 6.73395 | 2321 ft | 174 kts | 245° |
| 2026-05-04 22:26 | 51.27011 | 6.71536 | 3404 ft | 172 kts | 281° |
| 2026-05-04 22:26 | 51.27683 | 6.69811 | 4028 ft | 199 kts | 316° |
| 2026-05-04 22:26 | 51.28877 | 6.68668 | 4809 ft | 208 kts | 336° |
| 2026-05-04 22:26 | 51.30375 | 6.68381 | 5186 ft | 230 kts | 1° |
| 2026-05-04 22:27 | 51.32060 | 6.68632 | 5358 ft | 256 kts | 5° |
| 2026-05-04 22:27 | 51.33912 | 6.68983 | 5473 ft | 277 kts | 4° |
| 2026-05-04 22:27 | 51.35838 | 6.69234 | 6160 ft | 278 kts | 3° |
| 2026-05-04 22:27 | 51.37781 | 6.69444 | 6843 ft | 281 kts | 2° |
| 2026-05-04 22:28 | 51.39700 | 6.69895 | 7461 ft | 285 kts | 19° |
| 2026-05-04 22:28 | 51.41393 | 6.71547 | 8158 ft | 289 kts | 42° |
| 2026-05-04 22:28 | 51.42812 | 6.73849 | 8828 ft | 293 kts | 47° |
| 2026-05-04 22:28 | 51.44225 | 6.76233 | 9575 ft | 297 kts | 46° |
| 2026-05-04 22:29 | 51.45711 | 6.78575 | 10163 ft | 308 kts | 44° |
| 2026-05-04 22:29 | 51.47365 | 6.81008 | 10295 ft | 336 kts | 42° |
| 2026-05-04 22:29 | 51.49204 | 6.83565 | 10417 ft | 364 kts | 40° |
| 2026-05-04 22:29 | 51.51176 | 6.86201 | 11119 ft | 371 kts | 39° |
| 2026-05-04 22:30 | 51.53191 | 6.88836 | 11932 ft | 376 kts | 39° |
| 2026-05-04 22:30 | 51.55246 | 6.91494 | 12786 ft | 380 kts | 39° |
| 2026-05-04 22:30 | 51.57326 | 6.94168 | 13612 ft | 385 kts | 39° |
| 2026-05-04 22:30 | 51.59439 | 6.96874 | 14371 ft | 390 kts | 38° |
| 2026-05-04 22:31 | 51.61573 | 6.99604 | 15047 ft | 395 kts | 38° |
| 2026-05-04 22:31 | 51.63709 | 7.02339 | 15739 ft | 400 kts | 38° |
| 2026-05-04 22:31 | 51.65901 | 7.05150 | 16423 ft | 405 kts | 38° |
| 2026-05-04 22:31 | 51.68115 | 7.07995 | 17099 ft | 410 kts | 38° |
| 2026-05-04 22:32 | 51.70361 | 7.10883 | 17783 ft | 415 kts | 38° |
| 2026-05-04 22:32 | 51.72634 | 7.13807 | 18428 ft | 420 kts | 38° |
| 2026-05-04 22:32 | 51.74927 | 7.16761 | 19000 ft | 424 kts | 38° |
| 2026-05-04 22:32 | 51.77244 | 7.19749 | 19583 ft | 428 kts | 38° |
| 2026-05-04 22:33 | 51.79581 | 7.22765 | 20150 ft | 432 kts | 38° |
| 2026-05-04 22:33 | 51.81941 | 7.25818 | 20729 ft | 436 kts | 38° |
| 2026-05-04 22:33 | 51.84316 | 7.28905 | 21273 ft | 441 kts | 38° |
| 2026-05-04 22:33 | 51.86713 | 7.32030 | 21828 ft | 445 kts | 38° |
| 2026-05-04 22:34 | 51.89133 | 7.35188 | 22364 ft | 449 kts | 39° |
| 2026-05-04 22:34 | 51.91579 | 7.38382 | 22898 ft | 453 kts | 39° |
| 2026-05-04 22:34 | 51.94042 | 7.41600 | 23442 ft | 457 kts | 39° |
| 2026-05-04 22:34 | 51.96529 | 7.44852 | 23909 ft | 461 kts | 39° |
| 2026-05-04 22:35 | 51.99034 | 7.48131 | 24359 ft | 465 kts | 39° |
| 2026-05-04 22:35 | 52.01571 | 7.51458 | 24793 ft | 469 kts | 39° |
| 2026-05-04 22:35 | 52.04093 | 7.54769 | 25241 ft | 473 kts | 39° |
| 2026-05-04 22:35 | 52.06660 | 7.58145 | 25681 ft | 477 kts | 39° |
| 2026-05-04 22:36 | 52.09245 | 7.61581 | 26090 ft | 482 kts | 40° |
| 2026-05-04 22:36 | 52.11717 | 7.65287 | 26523 ft | 485 kts | 45° |
| 2026-05-04 22:36 | 52.14088 | 7.69227 | 26948 ft | 489 kts | 47° |
| 2026-05-04 22:36 | 52.16426 | 7.73298 | 27369 ft | 493 kts | 47° |
| 2026-05-04 22:37 | 52.18763 | 7.77426 | 27786 ft | 497 kts | 47° |
| 2026-05-04 22:37 | 52.21126 | 7.81575 | 28198 ft | 501 kts | 47° |
| 2026-05-04 22:37 | 52.23360 | 7.85449 | 28577 ft | 504 kts | 47° |
| 2026-05-04 22:37 | 52.25784 | 7.89616 | 28979 ft | 508 kts | 46° |
| 2026-05-04 22:38 | 52.28231 | 7.93803 | 29382 ft | 512 kts | 46° |
| 2026-05-04 22:38 | 52.30700 | 7.98021 | 29753 ft | 515 kts | 46° |
| 2026-05-04 22:38 | 52.33196 | 8.02288 | 30133 ft | 519 kts | 47° |
| 2026-05-04 22:38 | 52.35689 | 8.06560 | 30550 ft | 520 kts | 47° |
| 2026-05-04 22:39 | 52.38155 | 8.10795 | 31055 ft | 520 kts | 47° |
| 2026-05-04 22:39 | 52.39837 | 8.13689 | 31410 ft | 519 kts | 47° |
| 2026-05-04 22:39 | 52.43128 | 8.19364 | 32110 ft | 518 kts | 47° |
| 2026-05-04 22:39 | 52.45611 | 8.23656 | 32618 ft | 518 kts | 47° |
| 2026-05-04 22:40 | 52.48085 | 8.27939 | 33111 ft | 517 kts | 47° |
| 2026-05-04 22:40 | 52.50554 | 8.32221 | 33597 ft | 516 kts | 47° |
| 2026-05-04 22:40 | 52.53023 | 8.36511 | 34065 ft | 516 kts | 47° |
| 2026-05-04 22:40 | 52.54687 | 8.39408 | 34337 ft | 515 kts | 47° |
| 2026-05-04 22:41 | 52.57115 | 8.43638 | 34758 ft | 513 kts | 47° |
| 2026-05-04 22:41 | 52.59555 | 8.47897 | 35202 ft | 511 kts | 47° |
| 2026-05-04 22:41 | 52.62000 | 8.52172 | 35637 ft | 509 kts | 47° |
| 2026-05-04 22:41 | 52.64424 | 8.56417 | 36063 ft | 507 kts | 47° |
| 2026-05-04 22:42 | 52.66838 | 8.60653 | 36471 ft | 505 kts | 47° |
| 2026-05-04 22:42 | 52.69237 | 8.64871 | 36871 ft | 503 kts | 47° |
| 2026-05-04 22:42 | 52.71598 | 8.69028 | 37201 ft | 503 kts | 47° |
| 2026-05-04 22:42 | 52.73990 | 8.73247 | 37475 ft | 502 kts | 47° |
| 2026-05-04 22:43 | 52.76419 | 8.77348 | 37755 ft | 499 kts | 41° |
| 2026-05-04 22:43 | 52.79164 | 8.80834 | 37937 ft | 497 kts | 32° |
| 2026-05-04 22:43 | 52.82142 | 8.83756 | 37980 ft | 498 kts | 27° |
| 2026-05-04 22:44 | 52.88318 | 8.88995 | 37986 ft | 498 kts | 25° |
| 2026-05-04 22:44 | 52.94479 | 8.94270 | 37993 ft | 499 kts | 26° |
| 2026-05-04 22:45 | 53.00592 | 8.99737 | 37992 ft | 499 kts | 27° |
| 2026-05-04 22:45 | 53.09698 | 9.08035 | 37994 ft | 499 kts | 27° |
| 2026-05-04 22:46 | 53.15794 | 9.13610 | 37986 ft | 500 kts | 27° |
| 2026-05-04 22:46 | 53.21901 | 9.19205 | 37979 ft | 500 kts | 27° |
| 2026-05-04 22:47 | 53.28003 | 9.24812 | 37985 ft | 500 kts | 27° |
| 2026-05-04 22:47 | 53.34095 | 9.30430 | 37987 ft | 500 kts | 27° |
| 2026-05-04 22:48 | 53.40192 | 9.36071 | 37986 ft | 501 kts | 27° |
| 2026-05-04 22:48 | 53.46287 | 9.41728 | 37987 ft | 501 kts | 27° |
| 2026-05-04 22:49 | 53.51943 | 9.48504 | 37988 ft | 502 kts | 45° |
| 2026-05-04 22:49 | 53.56267 | 9.57605 | 37991 ft | 502 kts | 55° |
| 2026-05-04 22:50 | 53.60282 | 9.67264 | 37990 ft | 503 kts | 54° |
| 2026-05-04 22:50 | 53.64432 | 9.76750 | 37990 ft | 503 kts | 53° |
| 2026-05-04 22:51 | 53.68674 | 9.86129 | 37996 ft | 503 kts | 52° |
| 2026-05-04 22:51 | 53.72929 | 9.95507 | 37992 ft | 503 kts | 52° |
| 2026-05-04 22:52 | 53.77167 | 10.04898 | 37990 ft | 503 kts | 52° |
| 2026-05-04 22:52 | 53.81393 | 10.14314 | 37988 ft | 502 kts | 53° |
| 2026-05-04 22:53 | 53.85616 | 10.23761 | 37982 ft | 502 kts | 53° |
| 2026-05-04 22:53 | 53.89827 | 10.33218 | 37987 ft | 502 kts | 53° |
| 2026-05-04 22:54 | 53.94029 | 10.42689 | 37987 ft | 502 kts | 53° |
| 2026-05-04 22:54 | 53.96123 | 10.47422 | 37789 ft | 500 kts | 53° |
| 2026-05-04 22:54 | 53.98164 | 10.52044 | 37412 ft | 492 kts | 53° |
| 2026-05-04 22:55 | 54.00207 | 10.56679 | 36994 ft | 488 kts | 53° |
| 2026-05-04 22:55 | 54.02231 | 10.61316 | 36440 ft | 488 kts | 54° |
| 2026-05-04 22:55 | 54.04247 | 10.65976 | 35938 ft | 489 kts | 54° |
| 2026-05-04 22:55 | 54.06274 | 10.70657 | 35422 ft | 492 kts | 54° |
| 2026-05-04 22:56 | 54.08310 | 10.75349 | 34939 ft | 494 kts | 54° |
| 2026-05-04 22:56 | 54.10363 | 10.80068 | 34434 ft | 496 kts | 54° |
| 2026-05-04 22:56 | 54.12422 | 10.84799 | 33926 ft | 499 kts | 54° |
| 2026-05-04 22:56 | 54.14499 | 10.89573 | 33357 ft | 501 kts | 54° |
| 2026-05-04 22:57 | 54.16580 | 10.94365 | 32820 ft | 502 kts | 54° |
| 2026-05-04 22:57 | 54.18661 | 10.99167 | 32311 ft | 504 kts | 54° |
| 2026-05-04 22:57 | 54.20750 | 11.03994 | 31754 ft | 505 kts | 54° |
| 2026-05-04 22:57 | 54.22835 | 11.08825 | 31198 ft | 506 kts | 54° |
| 2026-05-04 22:58 | 54.24924 | 11.13671 | 30642 ft | 507 kts | 54° |
| 2026-05-04 22:58 | 54.27015 | 11.18534 | 30091 ft | 507 kts | 54° |
| 2026-05-04 22:58 | 54.29105 | 11.23405 | 29462 ft | 508 kts | 54° |
| 2026-05-04 22:58 | 54.31199 | 11.28294 | 28871 ft | 509 kts | 54° |
| 2026-05-04 22:59 | 54.33296 | 11.33198 | 28319 ft | 511 kts | 54° |
| 2026-05-04 22:59 | 54.35371 | 11.38062 | 27724 ft | 511 kts | 54° |
| 2026-05-04 22:59 | 54.37460 | 11.42967 | 27161 ft | 507 kts | 54° |
| 2026-05-04 22:59 | 54.39532 | 11.47843 | 26585 ft | 503 kts | 54° |
| 2026-05-04 23:00 | 54.40924 | 11.51123 | 26204 ft | 501 kts | 54° |
| 2026-05-04 23:01 | 54.50313 | 11.71565 | 23711 ft | 484 kts | 47° |
| 2026-05-04 23:01 | 54.52560 | 11.75814 | 23079 ft | 479 kts | 47° |
| 2026-05-04 23:01 | 54.54802 | 11.80027 | 22472 ft | 475 kts | 47° |
| 2026-05-04 23:01 | 54.57021 | 11.84214 | 21891 ft | 470 kts | 47° |
| 2026-05-04 23:02 | 54.59207 | 11.88367 | 21327 ft | 465 kts | 47° |
| 2026-05-04 23:02 | 54.61429 | 11.92389 | 20793 ft | 460 kts | 41° |
| 2026-05-04 23:02 | 54.62155 | 11.93504 | 20623 ft | 459 kts | 39° |
| 2026-05-04 23:02 | 54.62998 | 11.94701 | 20423 ft | 458 kts | 37° |
| 2026-05-04 23:03 | 54.65552 | 11.97916 | 19830 ft | 452 kts | 32° |
| 2026-05-04 23:03 | 54.68166 | 12.00903 | 19249 ft | 448 kts | 31° |
| 2026-05-04 23:03 | 54.70775 | 12.03801 | 18706 ft | 444 kts | 31° |
| 2026-05-04 23:03 | 54.73330 | 12.06649 | 18112 ft | 441 kts | 31° |
| 2026-05-04 23:04 | 54.75894 | 12.09547 | 17481 ft | 437 kts | 31° |
| 2026-05-04 23:04 | 54.78421 | 12.12441 | 16918 ft | 434 kts | 32° |
| 2026-05-04 23:04 | 54.80931 | 12.15325 | 16317 ft | 429 kts | 30° |
| 2026-05-04 23:04 | 54.83596 | 12.17491 | 15349 ft | 420 kts | 14° |
| 2026-05-04 23:05 | 54.86423 | 12.18547 | 14409 ft | 412 kts | 5° |
| 2026-05-04 23:05 | 54.89255 | 12.19219 | 13473 ft | 409 kts | 4° |
| 2026-05-04 23:05 | 54.92070 | 12.19918 | 12469 ft | 407 kts | 5° |
| 2026-05-04 23:05 | 54.94859 | 12.20757 | 11498 ft | 405 kts | 7° |
| 2026-05-04 23:06 | 54.97609 | 12.21720 | 10653 ft | 400 kts | 9° |
| 2026-05-04 23:06 | 55.00206 | 12.22730 | 10574 ft | 374 kts | 9° |
| 2026-05-04 23:06 | 55.02659 | 12.23730 | 10460 ft | 352 kts | 10° |
| 2026-05-04 23:06 | 55.04977 | 12.24692 | 10333 ft | 332 kts | 10° |
| 2026-05-04 23:07 | 55.07179 | 12.25611 | 10073 ft | 321 kts | 9° |
| 2026-05-04 23:07 | 55.09363 | 12.26518 | 9579 ft | 322 kts | 9° |
| 2026-05-04 23:07 | 55.11537 | 12.27421 | 9064 ft | 320 kts | 9° |
| 2026-05-04 23:07 | 55.13685 | 12.28317 | 8571 ft | 316 kts | 9° |
| 2026-05-04 23:08 | 55.15812 | 12.29207 | 8093 ft | 313 kts | 9° |
| 2026-05-04 23:08 | 55.17919 | 12.30090 | 7626 ft | 310 kts | 9° |
| 2026-05-04 23:08 | 55.19980 | 12.30955 | 7202 ft | 307 kts | 9° |
| 2026-05-04 23:08 | 55.22048 | 12.31825 | 6779 ft | 305 kts | 10° |
| 2026-05-04 23:09 | 55.24099 | 12.32689 | 6345 ft | 302 kts | 9° |
| 2026-05-04 23:09 | 55.26135 | 12.33547 | 5874 ft | 299 kts | 9° |
| 2026-05-04 23:09 | 55.28154 | 12.34400 | 5453 ft | 297 kts | 9° |
| 2026-05-04 23:09 | 55.30161 | 12.35247 | 5181 ft | 294 kts | 9° |
| 2026-05-04 23:10 | 55.32148 | 12.36088 | 4760 ft | 292 kts | 9° |
| 2026-05-04 23:10 | 55.34111 | 12.36920 | 4346 ft | 288 kts | 9° |
| 2026-05-04 23:10 | 55.36046 | 12.37740 | 3946 ft | 284 kts | 10° |
| 2026-05-04 23:10 | 55.37959 | 12.38551 | 3558 ft | 281 kts | 10° |
| 2026-05-04 23:11 | 55.39848 | 12.39353 | 3236 ft | 275 kts | 10° |
| 2026-05-04 23:11 | 55.41047 | 12.39866 | 3082 ft | 261 kts | 10° |
| 2026-05-04 23:11 | 55.42762 | 12.40599 | 2823 ft | 249 kts | 11° |
| 2026-05-04 23:11 | 55.44445 | 12.41314 | 2602 ft | 247 kts | 11° |
| 2026-05-04 23:12 | 55.46111 | 12.42020 | 2512 ft | 245 kts | 12° |
| 2026-05-04 23:12 | 55.47648 | 12.42950 | 2457 ft | 222 kts | 30° |
| 2026-05-04 23:12 | 55.48845 | 12.44442 | 2483 ft | 209 kts | 39° |
| 2026-05-04 23:12 | 55.49943 | 12.46065 | 2497 ft | 205 kts | 42° |
| 2026-05-04 23:13 | 55.51008 | 12.47716 | 2391 ft | 199 kts | 42° |
| 2026-05-04 23:13 | 55.52026 | 12.49287 | 2101 ft | 190 kts | 43° |
| 2026-05-04 23:13 | 55.53013 | 12.50806 | 1857 ft | 186 kts | 43° |
| 2026-05-04 23:13 | 55.53935 | 12.52221 | 1589 ft | 169 kts | 43° |
| 2026-05-04 23:14 | 55.54800 | 12.53553 | 1368 ft | 162 kts | 43° |
| 2026-05-04 23:14 | 55.55643 | 12.54843 | 1150 ft | 160 kts | 43° |
| 2026-05-04 23:14 | 55.56468 | 12.56128 | 888 ft | 156 kts | 43° |
| 2026-05-04 23:14 | 55.57270 | 12.57397 | 627 ft | 153 kts | 39° |
| 2026-05-04 23:15 | 55.58065 | 12.58580 | 384 ft | 150 kts | 39° |
| 2026-05-04 23:15 | 55.58844 | 12.59787 | 152 ft | 148 kts | 38° |
| 2026-05-04 23:15 | 55.59607 | 12.60956 | 31 ft | 133 kts | 42° |
| 2026-05-04 23:15 | 55.60193 | 12.61856 | 29 ft | 90 kts | 41° |
| 2026-05-04 23:16 | 55.60584 | 12.62460 | 33 ft | 64 kts | 41° |
| 2026-05-04 23:16 | 55.60887 | 12.62928 | 30 ft | 52 kts | 41° |
| 2026-05-04 23:16 | 55.61134 | 12.63311 | 35 ft | 43 kts | 41° |
| 2026-05-04 23:16 | 55.61340 | 12.63634 | 33 ft | 37 kts | 40° |
| 2026-05-04 23:17 | 55.61520 | 12.63905 | 32 ft | 29 kts | 41° |
| 2026-05-04 23:17 | 55.61636 | 12.64071 | 35 ft | 19 kts | 24° |
| 2026-05-04 23:17 | 55.61761 | 12.64080 | 34 ft | 18 kts | 357° |
| 2026-05-04 23:17 | 55.61880 | 12.64086 | 34 ft | 17 kts | 15° |
| 2026-05-04 23:18 | 55.61990 | 12.64172 | 29 ft | 19 kts | 25° |
| 2026-05-04 23:18 | 55.62112 | 12.64274 | 31 ft | 20 kts | 26° |
| 2026-05-04 23:18 | 55.62234 | 12.64394 | 28 ft | 19 kts | 43° |
| 2026-05-04 23:18 | 55.62293 | 12.64579 | 26 ft | 17 kts | 66° |
| 2026-05-04 23:19 | 55.62304 | 12.64755 | 30 ft | 13 kts | 110° |
| 2026-05-04 23:19 | 55.62262 | 12.64879 | 31 ft | 12 kts | 123° |
| 2026-05-04 23:19 | 55.62212 | 12.65009 | 31 ft | 13 kts | 124° |
| 2026-05-04 23:19 | 55.62187 | 12.65146 | 31 ft | 9 kts | 69° |
| 2026-05-04 23:20 | 55.62245 | 12.65198 | 29 ft | 11 kts | 6° |
| 2026-05-04 23:20 | 55.62327 | 12.65196 | 28 ft | 13 kts | 358° |
| 2026-05-04 23:20 | 55.62409 | 12.65173 | 27 ft | 8 kts | 329° |
| 2026-05-04 23:20 | 55.62424 | 12.65114 | 26 ft | 5 kts | 278° |
| 2026-05-04 23:21 | 55.62424 | 12.65082 | 26 ft | 0 kts | 271° |
| 2026-05-04 23:21 | 55.62425 | 12.65064 | 26 ft | 3 kts | 273° |
| 2026-05-04 23:21 | 55.62425 | 12.65052 | 26 ft | 0 kts | 271° |